昆明 の空港の天気 - METARとTAF

昆明巫家餽国際空港 ( ZPPP / KMG ) - 中国 雲南省昆明市
飛行場実況気象(Metar)
観測時間01/19 19:00 CST (01/19 11:00 UTC)
風向・風速南西 5m/s
視程10km以上
天気現象
なし
気温12℃
湿度38%
気圧1019hPa
METARZPPP 191100Z 23005MPS CAVOK 12/M02 Q1019 NOSIG
過去の天気等 Google飛行場航空写真 Wunderground天気予報

過去48時間のMETAR

飛行場予報(TAF)
発表時間: 1/19 09:08 CST (1/19 01:08 UTC)
予報対象時間: 19日14時 CST ~ 20日14時 CST
風向・風速南西 10m/s 瞬間風速 15m/s
視程10km以上
少しの雲 雲底高度 790m
19日20時 CST ~ 19日21時 CST に徐々に
風向・風速南西 5m/s
TAF ZPPP 190108Z 1906/2006 23010G15MPS 9999 FEW026 TX18/1908Z TN04/1923Z
BECMG 1912/1913 23005MPS